sensor_id;sensor_type;location;lat;lon;timestamp;pressure;altitude;pressure_sealevel;temperature;humidity
22181;BME280;11256;50.830;12.834;2022-11-20T00:03:47;97162.47;;;-2.31;65.87
22181;BME280;11256;50.830;12.834;2022-11-20T00:08:48;97180.00;;;-2.30;66.23
22181;BME280;11256;50.830;12.834;2022-11-20T00:13:52;97168.03;;;-2.39;65.78
22181;BME280;11256;50.830;12.834;2022-11-20T00:18:53;97172.72;;;-2.41;66.22
22181;BME280;11256;50.830;12.834;2022-11-20T00:23:55;97170.94;;;-2.47;66.15
22181;BME280;11256;50.830;12.834;2022-11-20T00:28:58;97168.09;;;-2.52;66.52
22181;BME280;11256;50.830;12.834;2022-11-20T00:33:59;97153.28;;;-2.66;66.50
22181;BME280;11256;50.830;12.834;2022-11-20T00:38:59;97154.47;;;-2.62;66.33
22181;BME280;11256;50.830;12.834;2022-11-20T00:44:00;97129.94;;;-2.88;66.39
22181;BME280;11256;50.830;12.834;2022-11-20T00:49:00;97164.28;;;-2.69;66.26
22181;BME280;11256;50.830;12.834;2022-11-20T00:54:01;97179.41;;;-2.69;66.26
22181;BME280;11256;50.830;12.834;2022-11-20T00:59:02;97186.34;;;-2.75;66.25
22181;BME280;11256;50.830;12.834;2022-11-20T01:04:03;97184.09;;;-2.78;66.55
22181;BME280;11256;50.830;12.834;2022-11-20T01:09:09;97172.31;;;-2.82;66.23
22181;BME280;11256;50.830;12.834;2022-11-20T01:14:13;97161.09;;;-2.84;66.26
22181;BME280;11256;50.830;12.834;2022-11-20T01:19:17;97161.94;;;-2.90;66.63
22181;BME280;11256;50.830;12.834;2022-11-20T01:24:19;97145.66;;;-3.00;66.58
22181;BME280;11256;50.830;12.834;2022-11-20T01:29:22;97155.06;;;-3.04;66.36
22181;BME280;11256;50.830;12.834;2022-11-20T01:34:23;97141.63;;;-3.09;66.59
22181;BME280;11256;50.830;12.834;2022-11-20T01:39:25;97138.34;;;-3.11;67.08
22181;BME280;11256;50.830;12.834;2022-11-20T01:44:52;97137.16;;;-3.15;66.82
22181;BME280;11256;50.830;12.834;2022-11-20T01:50:01;97142.88;;;-3.18;66.68
22181;BME280;11256;50.830;12.834;2022-11-20T01:55:13;97149.19;;;-3.19;67.12
22181;BME280;11256;50.830;12.834;2022-11-20T02:00:17;97138.00;;;-3.27;67.02
22181;BME280;11256;50.830;12.834;2022-11-20T02:05:35;97141.69;;;-3.28;67.09
22181;BME280;11256;50.830;12.834;2022-11-20T02:10:37;97137.63;;;-3.31;67.06
22181;BME280;11256;50.830;12.834;2022-11-20T02:15:37;97128.66;;;-3.36;67.04
22181;BME280;11256;50.830;12.834;2022-11-20T02:20:41;97130.91;;;-3.40;67.08
22181;BME280;11256;50.830;12.834;2022-11-20T02:25:43;97118.50;;;-3.46;67.27
22181;BME280;11256;50.830;12.834;2022-11-20T02:30:45;97117.72;;;-3.53;67.33
22181;BME280;11256;50.830;12.834;2022-11-20T02:35:46;97122.81;;;-3.58;67.20
22181;BME280;11256;50.830;12.834;2022-11-20T02:40:47;97121.19;;;-3.59;67.35
22181;BME280;11256;50.830;12.834;2022-11-20T02:45:47;97100.22;;;-3.67;67.28
22181;BME280;11256;50.830;12.834;2022-11-20T02:50:48;97114.03;;;-3.65;67.75
22181;BME280;11256;50.830;12.834;2022-11-20T02:55:48;97117.31;;;-3.69;67.67
22181;BME280;11256;50.830;12.834;2022-11-20T03:00:49;97116.09;;;-3.73;67.53
22181;BME280;11256;50.830;12.834;2022-11-20T03:05:49;97105.09;;;-3.77;67.58
22181;BME280;11256;50.830;12.834;2022-11-20T03:10:50;97113.28;;;-3.78;67.36
22181;BME280;11256;50.830;12.834;2022-11-20T03:15:50;97114.28;;;-3.79;67.81
22181;BME280;11256;50.830;12.834;2022-11-20T03:20:57;97109.59;;;-3.84;67.58
22181;BME280;11256;50.830;12.834;2022-11-20T03:26:18;97094.34;;;-3.95;67.46
22181;BME280;11256;50.830;12.834;2022-11-20T03:31:22;97100.84;;;-3.97;67.67
22181;BME280;11256;50.830;12.834;2022-11-20T03:36:23;97103.09;;;-4.01;67.67
22181;BME280;11256;50.830;12.834;2022-11-20T03:41:29;97097.41;;;-4.04;67.81
22181;BME280;11256;50.830;12.834;2022-11-20T03:46:30;97090.50;;;-4.12;67.34
22181;BME280;11256;50.830;12.834;2022-11-20T03:51:33;97085.59;;;-4.15;67.89
22181;BME280;11256;50.830;12.834;2022-11-20T03:56:36;97058.16;;;-4.27;67.90
22181;BME280;11256;50.830;12.834;2022-11-20T04:01:37;97079.13;;;-4.19;67.80
22181;BME280;11256;50.830;12.834;2022-11-20T04:06:37;97055.94;;;-4.30;68.15
22181;BME280;11256;50.830;12.834;2022-11-20T04:11:40;97068.53;;;-4.32;68.08
22181;BME280;11256;50.830;12.834;2022-11-20T04:16:40;97077.06;;;-4.30;68.16
22181;BME280;11256;50.830;12.834;2022-11-20T04:21:42;97070.56;;;-4.34;68.16
22181;BME280;11256;50.830;12.834;2022-11-20T04:26:43;97072.81;;;-4.37;68.19
22181;BME280;11256;50.830;12.834;2022-11-20T04:31:43;97077.25;;;-4.38;68.71
22181;BME280;11256;50.830;12.834;2022-11-20T04:36:43;97079.09;;;-4.45;68.40
22181;BME280;11256;50.830;12.834;2022-11-20T04:41:44;97075.81;;;-4.47;68.22
22181;BME280;11256;50.830;12.834;2022-11-20T04:46:45;97083.16;;;-4.49;68.43
22181;BME280;11256;50.830;12.834;2022-11-20T04:51:45;97079.50;;;-4.54;68.37
22181;BME280;11256;50.830;12.834;2022-11-20T04:56:49;97077.25;;;-4.57;68.40
22181;BME280;11256;50.830;12.834;2022-11-20T05:01:50;97083.13;;;-4.62;68.36
22181;BME280;11256;50.830;12.834;2022-11-20T05:06:50;97071.34;;;-4.66;68.74
22181;BME280;11256;50.830;12.834;2022-11-20T05:11:51;97066.25;;;-4.67;69.03
22181;BME280;11256;50.830;12.834;2022-11-20T05:16:51;97067.66;;;-4.71;68.65
22181;BME280;11256;50.830;12.834;2022-11-20T05:21:51;97065.25;;;-4.73;68.84
22181;BME280;11256;50.830;12.834;2022-11-20T05:26:52;97069.88;;;-4.75;68.67
22181;BME280;11256;50.830;12.834;2022-11-20T05:31:52;97062.38;;;-4.78;68.75
22181;BME280;11256;50.830;12.834;2022-11-20T05:36:53;97062.78;;;-4.81;68.86
22181;BME280;11256;50.830;12.834;2022-11-20T05:41:53;97052.63;;;-4.84;68.89
22181;BME280;11256;50.830;12.834;2022-11-20T05:47:12;97051.38;;;-4.88;68.56
22181;BME280;11256;50.830;12.834;2022-11-20T05:52:13;97041.63;;;-4.94;68.76
22181;BME280;11256;50.830;12.834;2022-11-20T05:57:13;97034.72;;;-4.95;68.71
22181;BME280;11256;50.830;12.834;2022-11-20T06:02:14;97035.09;;;-4.98;68.95
22181;BME280;11256;50.830;12.834;2022-11-20T06:07:14;97025.94;;;-5.02;68.99
22181;BME280;11256;50.830;12.834;2022-11-20T06:12:15;97035.91;;;-5.04;69.19
22181;BME280;11256;50.830;12.834;2022-11-20T06:17:15;97034.44;;;-5.13;69.20
22181;BME280;11256;50.830;12.834;2022-11-20T06:22:16;97025.72;;;-5.20;68.94
22181;BME280;11256;50.830;12.834;2022-11-20T06:27:16;97045.66;;;-5.11;68.99
22181;BME280;11256;50.830;12.834;2022-11-20T06:32:17;97041.16;;;-5.17;69.22
22181;BME280;11256;50.830;12.834;2022-11-20T06:37:17;97045.63;;;-5.17;69.21
22181;BME280;11256;50.830;12.834;2022-11-20T06:42:17;97050.91;;;-5.17;69.54
22181;BME280;11256;50.830;12.834;2022-11-20T06:47:18;97018.56;;;-5.32;69.31
22181;BME280;11256;50.830;12.834;2022-11-20T06:52:18;97033.41;;;-5.25;69.47
22181;BME280;11256;50.830;12.834;2022-11-20T06:57:19;97038.09;;;-5.20;69.42
22181;BME280;11256;50.830;12.834;2022-11-20T07:02:19;97040.94;;;-5.22;69.10
22181;BME280;11256;50.830;12.834;2022-11-20T07:07:20;97046.81;;;-5.20;69.68
22181;BME280;11256;50.830;12.834;2022-11-20T07:12:20;97037.88;;;-5.25;69.31
22181;BME280;11256;50.830;12.834;2022-11-20T07:17:21;97054.97;;;-5.15;69.59
22181;BME280;11256;50.830;12.834;2022-11-20T07:22:21;97029.97;;;-5.25;69.15
22181;BME280;11256;50.830;12.834;2022-11-20T07:27:22;97042.22;;;-5.05;69.21
22181;BME280;11256;50.830;12.834;2022-11-20T07:32:23;97038.78;;;-4.99;69.42
22181;BME280;11256;50.830;12.834;2022-11-20T07:37:23;97026.81;;;-4.95;69.54
22181;BME280;11256;50.830;12.834;2022-11-20T07:42:24;97034.34;;;-4.72;69.55
22181;BME280;11256;50.830;12.834;2022-11-20T07:47:25;97034.97;;;-4.51;70.15
22181;BME280;11256;50.830;12.834;2022-11-20T07:52:25;97024.41;;;-4.38;69.32
22181;BME280;11256;50.830;12.834;2022-11-20T07:57:26;97030.31;;;-4.23;68.91
22181;BME280;11256;50.830;12.834;2022-11-20T08:02:26;97023.38;;;-4.11;69.07
22181;BME280;11256;50.830;12.834;2022-11-20T08:07:27;97023.13;;;-3.96;69.11
22181;BME280;11256;50.830;12.834;2022-11-20T08:12:27;97026.81;;;-3.91;68.98
22181;BME280;11256;50.830;12.834;2022-11-20T08:17:46;97029.03;;;-3.88;71.15
22181;BME280;11256;50.830;12.834;2022-11-20T08:22:46;97015.78;;;-3.88;71.14
22181;BME280;11256;50.830;12.834;2022-11-20T08:27:47;96995.91;;;-3.97;71.76
22181;BME280;11256;50.830;12.834;2022-11-20T08:32:47;97007.72;;;-3.49;73.50
22181;BME280;11256;50.830;12.834;2022-11-20T08:37:48;96987.06;;;-2.59;76.58
22181;BME280;11256;50.830;12.834;2022-11-20T08:42:49;97003.38;;;-0.87;77.35
22181;BME280;11256;50.830;12.834;2022-11-20T08:47:50;97004.69;;;0.55;73.89
22181;BME280;11256;50.830;12.834;2022-11-20T08:52:51;97009.34;;;0.99;69.62
22181;BME280;11256;50.830;12.834;2022-11-20T08:57:51;97007.38;;;1.22;68.23
22181;BME280;11256;50.830;12.834;2022-11-20T09:02:51;97003.63;;;1.07;66.50
22181;BME280;11256;50.830;12.834;2022-11-20T09:07:56;96978.09;;;0.71;65.61
22181;BME280;11256;50.830;12.834;2022-11-20T09:12:56;96986.59;;;0.57;65.33
22181;BME280;11256;50.830;12.834;2022-11-20T09:17:58;96986.59;;;0.57;66.00
22181;BME280;11256;50.830;12.834;2022-11-20T09:22:59;96985.94;;;0.50;65.54
22181;BME280;11256;50.830;12.834;2022-11-20T09:28:00;96968.22;;;0.44;66.33
22181;BME280;11256;50.830;12.834;2022-11-20T09:33:00;96976.22;;;0.44;66.11
22181;BME280;11256;50.830;12.834;2022-11-20T09:38:07;96974.34;;;0.44;66.79
22181;BME280;11256;50.830;12.834;2022-11-20T09:43:23;96974.56;;;0.43;66.82
22181;BME280;11256;50.830;12.834;2022-11-20T09:54:02;96955.25;;;0.24;66.94
22181;BME280;11256;50.830;12.834;2022-11-20T09:59:10;96972.16;;;0.30;67.14
22181;BME280;11256;50.830;12.834;2022-11-20T10:04:19;96981.31;;;0.34;68.28
22181;BME280;11256;50.830;12.834;2022-11-20T10:09:29;96978.50;;;0.40;68.98
22181;BME280;11256;50.830;12.834;2022-11-20T10:25:19;96985.22;;;0.43;69.33
22181;BME280;11256;50.830;12.834;2022-11-20T10:30:22;96973.56;;;0.44;69.35
22181;BME280;11256;50.830;12.834;2022-11-20T10:35:28;96957.47;;;0.39;69.30
22181;BME280;11256;50.830;12.834;2022-11-20T10:40:46;96964.03;;;0.48;69.32
22181;BME280;11256;50.830;12.834;2022-11-20T10:46:01;96976.66;;;0.52;69.15
22181;BME280;11256;50.830;12.834;2022-11-20T10:56:35;96963.06;;;0.65;70.29
22181;BME280;11256;50.830;12.834;2022-11-20T11:01:41;96954.50;;;0.63;69.09
22181;BME280;11256;50.830;12.834;2022-11-20T11:06:47;96959.69;;;0.70;69.90
22181;BME280;11256;50.830;12.834;2022-11-20T11:11:48;96959.31;;;0.78;69.92
22181;BME280;11256;50.830;12.834;2022-11-20T11:16:50;96945.50;;;0.81;69.75
22181;BME280;11256;50.830;12.834;2022-11-20T11:21:55;96945.28;;;0.82;69.28
22181;BME280;11256;50.830;12.834;2022-11-20T11:27:10;96901.72;;;0.77;70.55
22181;BME280;11256;50.830;12.834;2022-11-20T11:32:13;96920.19;;;0.95;70.70
22181;BME280;11256;50.830;12.834;2022-11-20T11:37:17;96927.31;;;1.06;70.76
22181;BME280;11256;50.830;12.834;2022-11-20T11:42:20;96883.91;;;0.94;71.12
22181;BME280;11256;50.830;12.834;2022-11-20T11:47:29;96911.97;;;1.13;70.99
22181;BME280;11256;50.830;12.834;2022-11-20T11:52:31;96911.50;;;1.16;71.05
22181;BME280;11256;50.830;12.834;2022-11-20T12:13:04;96904.59;;;1.48;71.90
22181;BME280;11256;50.830;12.834;2022-11-20T12:18:15;96895.84;;;1.52;72.20
22181;BME280;11256;50.830;12.834;2022-11-20T12:29:04;96868.69;;;1.55;72.22
22181;BME280;11256;50.830;12.834;2022-11-20T12:39:31;96865.34;;;1.65;72.56
22181;BME280;11256;50.830;12.834;2022-11-20T12:55:25;96867.56;;;1.89;73.24
22181;BME280;11256;50.830;12.834;2022-11-20T13:00:30;96877.50;;;1.94;72.48
22181;BME280;11256;50.830;12.834;2022-11-20T13:06:04;96880.50;;;1.97;72.47
22181;BME280;11256;50.830;12.834;2022-11-20T13:11:37;96879.94;;;1.95;72.49
22181;BME280;11256;50.830;12.834;2022-11-20T13:21:44;96868.13;;;1.91;72.89
22181;BME280;11256;50.830;12.834;2022-11-20T13:27:05;96871.84;;;1.90;72.86
22181;BME280;11256;50.830;12.834;2022-11-20T13:32:19;96877.66;;;1.87;72.73
22181;BME280;11256;50.830;12.834;2022-11-20T13:37:39;96875.00;;;1.87;73.24
22181;BME280;11256;50.830;12.834;2022-11-20T13:47:51;96874.22;;;1.87;72.61
22181;BME280;11256;50.830;12.834;2022-11-20T13:53:26;96881.25;;;1.93;72.96
22181;BME280;11256;50.830;12.834;2022-11-20T14:04:30;96865.06;;;1.83;72.58
22181;BME280;11256;50.830;12.834;2022-11-20T14:09:33;96882.84;;;1.94;72.35
22181;BME280;11256;50.830;12.834;2022-11-20T14:14:34;96866.94;;;1.82;72.84
22181;BME280;11256;50.830;12.834;2022-11-20T14:19:38;96873.16;;;1.88;72.26
22181;BME280;11256;50.830;12.834;2022-11-20T14:24:39;96877.66;;;1.87;72.02
22181;BME280;11256;50.830;12.834;2022-11-20T14:29:39;96885.44;;;1.89;72.01
22181;BME280;11256;50.830;12.834;2022-11-20T14:34:43;96864.44;;;1.76;72.10
22181;BME280;11256;50.830;12.834;2022-11-20T14:39:53;96868.16;;;1.75;71.82
22181;BME280;11256;50.830;12.834;2022-11-20T14:44:58;96861.19;;;1.74;71.54
22181;BME280;11256;50.830;12.834;2022-11-20T14:50:00;96869.69;;;1.71;71.66
22181;BME280;11256;50.830;12.834;2022-11-20T14:55:01;96881.53;;;1.75;71.79
22181;BME280;11256;50.830;12.834;2022-11-20T15:05:05;96865.19;;;1.55;71.75
22181;BME280;11256;50.830;12.834;2022-11-20T15:10:10;96865.50;;;1.58;71.66
22181;BME280;11256;50.830;12.834;2022-11-20T15:15:15;96876.09;;;1.53;71.55
22181;BME280;11256;50.830;12.834;2022-11-20T15:20:17;96877.59;;;1.44;71.51
22181;BME280;11256;50.830;12.834;2022-11-20T15:25:18;96871.88;;;1.41;72.00
22181;BME280;11256;50.830;12.834;2022-11-20T15:30:20;96855.59;;;1.21;71.54
22181;BME280;11256;50.830;12.834;2022-11-20T15:35:20;96871.09;;;1.24;71.63
22181;BME280;11256;50.830;12.834;2022-11-20T15:40:21;96876.91;;;1.21;71.64
22181;BME280;11256;50.830;12.834;2022-11-20T15:45:21;96868.25;;;1.14;72.04
22181;BME280;11256;50.830;12.834;2022-11-20T15:50:22;96862.25;;;1.07;71.91
22181;BME280;11256;50.830;12.834;2022-11-20T15:55:26;96868.09;;;1.04;72.15
22181;BME280;11256;50.830;12.834;2022-11-20T16:00:27;96854.19;;;1.02;72.06
22181;BME280;11256;50.830;12.834;2022-11-20T16:05:28;96857.34;;;0.99;71.60
22181;BME280;11256;50.830;12.834;2022-11-20T16:10:29;96870.59;;;0.94;72.11
22181;BME280;11256;50.830;12.834;2022-11-20T16:15:29;96856.00;;;0.85;71.77
22181;BME280;11256;50.830;12.834;2022-11-20T16:20:47;96870.91;;;0.97;71.97
22181;BME280;11256;50.830;12.834;2022-11-20T16:25:48;96856.66;;;0.92;71.54
22181;BME280;11256;50.830;12.834;2022-11-20T16:30:49;96855.22;;;0.84;71.44
22181;BME280;11256;50.830;12.834;2022-11-20T16:35:49;96857.88;;;0.84;70.98
22181;BME280;11256;50.830;12.834;2022-11-20T16:40:50;96831.41;;;0.66;70.98
22181;BME280;11256;50.830;12.834;2022-11-20T16:45:50;96854.78;;;0.76;71.78
22181;BME280;11256;50.830;12.834;2022-11-20T16:50:52;96841.13;;;0.72;71.36
22181;BME280;11256;50.830;12.834;2022-11-20T16:55:53;96846.25;;;0.62;71.13
22181;BME280;11256;50.830;12.834;2022-11-20T17:00:53;96823.00;;;0.58;71.41
22181;BME280;11256;50.830;12.834;2022-11-20T17:05:54;96851.84;;;0.61;71.22
22181;BME280;11256;50.830;12.834;2022-11-20T17:10:54;96849.31;;;0.54;70.89
22181;BME280;11256;50.830;12.834;2022-11-20T17:16:00;96832.81;;;0.41;71.01
22181;BME280;11256;50.830;12.834;2022-11-20T17:21:02;96822.97;;;0.41;70.95
22181;BME280;11256;50.830;12.834;2022-11-20T17:26:17;96822.28;;;0.34;70.85
22181;BME280;11256;50.830;12.834;2022-11-20T17:31:18;96801.78;;;0.07;71.15
22181;BME280;11256;50.830;12.834;2022-11-20T17:36:19;96827.47;;;0.13;71.50
22181;BME280;11256;50.830;12.834;2022-11-20T17:41:21;96827.25;;;0.03;71.31
22181;BME280;11256;50.830;12.834;2022-11-20T17:46:24;96835.75;;;-0.12;71.72
22181;BME280;11256;50.830;12.834;2022-11-20T17:51:30;96817.03;;;-0.28;72.00
22181;BME280;11256;50.830;12.834;2022-11-20T17:56:32;96817.63;;;-0.38;72.17
22181;BME280;11256;50.830;12.834;2022-11-20T18:01:51;96830.81;;;-0.31;72.11
22181;BME280;11256;50.830;12.834;2022-11-20T18:06:53;96814.06;;;-0.43;72.05
22181;BME280;11256;50.830;12.834;2022-11-20T18:11:54;96825.25;;;-0.41;72.06
22181;BME280;11256;50.830;12.834;2022-11-20T18:16:56;96824.47;;;-0.53;72.56
22181;BME280;11256;50.830;12.834;2022-11-20T18:21:57;96809.88;;;-0.62;72.88
22181;BME280;11256;50.830;12.834;2022-11-20T18:27:01;96795.44;;;-0.77;72.75
22181;BME280;11256;50.830;12.834;2022-11-20T18:32:01;96797.88;;;-0.76;72.84
22181;BME280;11256;50.830;12.834;2022-11-20T18:37:02;96798.78;;;-0.82;73.22
22181;BME280;11256;50.830;12.834;2022-11-20T18:42:02;96780.53;;;-0.90;73.20
22181;BME280;11256;50.830;12.834;2022-11-20T18:47:25;96766.19;;;-0.89;73.53
22181;BME280;11256;50.830;12.834;2022-11-20T18:52:33;96753.94;;;-0.90;73.26
22181;BME280;11256;50.830;12.834;2022-11-20T18:57:33;96746.34;;;-0.98;73.45
22181;BME280;11256;50.830;12.834;2022-11-20T19:02:34;96749.47;;;-0.89;73.26
22181;BME280;11256;50.830;12.834;2022-11-20T19:07:35;96728.75;;;-0.99;73.37
22181;BME280;11256;50.830;12.834;2022-11-20T19:12:35;96742.88;;;-0.87;73.04
22181;BME280;11256;50.830;12.834;2022-11-20T19:17:36;96734.63;;;-0.85;73.57
22181;BME280;11256;50.830;12.834;2022-11-20T19:22:36;96732.81;;;-0.85;73.42
22181;BME280;11256;50.830;12.834;2022-11-20T19:27:37;96711.41;;;-0.90;73.43
22181;BME280;11256;50.830;12.834;2022-11-20T19:32:37;96717.41;;;-0.83;73.59
22181;BME280;11256;50.830;12.834;2022-11-20T19:37:37;96712.09;;;-0.83;73.44
22181;BME280;11256;50.830;12.834;2022-11-20T19:42:38;96696.38;;;-0.84;73.42
22181;BME280;11256;50.830;12.834;2022-11-20T19:47:38;96705.16;;;-0.84;73.71
22181;BME280;11256;50.830;12.834;2022-11-20T19:52:39;96703.91;;;-0.81;73.64
22181;BME280;11256;50.830;12.834;2022-11-20T19:57:39;96691.16;;;-0.79;73.58
22181;BME280;11256;50.830;12.834;2022-11-20T20:02:39;96691.16;;;-0.79;73.78
22181;BME280;11256;50.830;12.834;2022-11-20T20:07:40;96681.81;;;-0.82;73.84
22181;BME280;11256;50.830;12.834;2022-11-20T20:12:40;96691.28;;;-0.74;73.86
22181;BME280;11256;50.830;12.834;2022-11-20T20:17:41;96659.72;;;-0.71;73.96
22181;BME280;11256;50.830;12.834;2022-11-20T20:22:41;96658.34;;;-0.73;74.12
22181;BME280;11256;50.830;12.834;2022-11-20T20:27:42;96646.34;;;-0.76;73.88
22181;BME280;11256;50.830;12.834;2022-11-20T20:32:42;96636.25;;;-0.74;74.04
22181;BME280;11256;50.830;12.834;2022-11-20T20:37:42;96609.00;;;-0.81;74.19
22181;BME280;11256;50.830;12.834;2022-11-20T20:42:43;96618.59;;;-0.80;74.36
22181;BME280;11256;50.830;12.834;2022-11-20T20:47:43;96634.75;;;-0.70;74.92
22181;BME280;11256;50.830;12.834;2022-11-20T20:52:44;96620.19;;;-0.67;74.75
22181;BME280;11256;50.830;12.834;2022-11-20T20:57:44;96603.53;;;-0.74;74.62
22181;BME280;11256;50.830;12.834;2022-11-20T21:02:45;96610.78;;;-0.58;74.59
22181;BME280;11256;50.830;12.834;2022-11-20T21:07:45;96595.31;;;-0.61;74.95
22181;BME280;11256;50.830;12.834;2022-11-20T21:13:04;96590.88;;;-0.56;74.62
22181;BME280;11256;50.830;12.834;2022-11-20T21:18:05;96567.16;;;-0.57;74.82
22181;BME280;11256;50.830;12.834;2022-11-20T21:23:09;96547.66;;;-0.63;74.70
22181;BME280;11256;50.830;12.834;2022-11-20T21:28:09;96550.53;;;-0.53;75.46
22181;BME280;11256;50.830;12.834;2022-11-20T21:33:10;96554.78;;;-0.52;75.19
22181;BME280;11256;50.830;12.834;2022-11-20T21:38:14;96539.97;;;-0.48;74.98
22181;BME280;11256;50.830;12.834;2022-11-20T21:43:14;96533.03;;;-0.49;75.29
22181;BME280;11256;50.830;12.834;2022-11-20T21:48:14;96522.22;;;-0.43;75.28
22181;BME280;11256;50.830;12.834;2022-11-20T21:53:15;96505.56;;;-0.38;75.41
22181;BME280;11256;50.830;12.834;2022-11-20T21:58:15;96502.09;;;-0.38;75.66
22181;BME280;11256;50.830;12.834;2022-11-20T22:03:16;96501.59;;;-0.36;75.54
22181;BME280;11256;50.830;12.834;2022-11-20T22:08:16;96478.88;;;-0.43;75.95
22181;BME280;11256;50.830;12.834;2022-11-20T22:13:17;96485.41;;;-0.34;75.92
22181;BME280;11256;50.830;12.834;2022-11-20T22:18:41;96471.78;;;-0.38;76.44
22181;BME280;11256;50.830;12.834;2022-11-20T22:23:42;96465.16;;;-0.35;76.16
22181;BME280;11256;50.830;12.834;2022-11-20T22:28:47;96465.09;;;-0.23;75.77
22181;BME280;11256;50.830;12.834;2022-11-20T22:33:49;96439.19;;;-0.28;75.83
22181;BME280;11256;50.830;12.834;2022-11-20T22:38:49;96444.69;;;-0.18;75.90
22181;BME280;11256;50.830;12.834;2022-11-20T22:43:54;96431.88;;;-0.21;75.69
22181;BME280;11256;50.830;12.834;2022-11-20T22:48:57;96432.41;;;-0.19;75.96
22181;BME280;11256;50.830;12.834;2022-11-20T22:53:58;96436.28;;;-0.10;75.96
22181;BME280;11256;50.830;12.834;2022-11-20T22:58:59;96422.47;;;-0.07;76.06
22181;BME280;11256;50.830;12.834;2022-11-20T23:04:02;96416.44;;;-0.03;76.34
22181;BME280;11256;50.830;12.834;2022-11-20T23:09:04;96401.13;;;-0.12;76.19
22181;BME280;11256;50.830;12.834;2022-11-20T23:14:09;96408.47;;;-0.03;76.21
22181;BME280;11256;50.830;12.834;2022-11-20T23:19:12;96393.84;;;0.00;76.30
22181;BME280;11256;50.830;12.834;2022-11-20T23:24:13;96382.56;;;-0.07;76.50
22181;BME280;11256;50.830;12.834;2022-11-20T23:29:13;96379.22;;;0.02;76.18
22181;BME280;11256;50.830;12.834;2022-11-20T23:34:14;96368.31;;;0.04;76.54
22181;BME280;11256;50.830;12.834;2022-11-20T23:39:14;96367.84;;;0.07;76.58
22181;BME280;11256;50.830;12.834;2022-11-20T23:44:15;96349.63;;;-0.01;76.56
22181;BME280;11256;50.830;12.834;2022-11-20T23:49:16;96351.88;;;0.07;76.99
22181;BME280;11256;50.830;12.834;2022-11-20T23:54:16;96334.84;;;0.08;76.81
22181;BME280;11256;50.830;12.834;2022-11-20T23:59:16;96329.59;;;0.13;77.36
